Diaz, Arkansas
Current Conditions -  °F | °C
As of 5:56 PM on Friday 19 Dec 2014 (Local Time) from KM19 Reporting Station
Overcast Overcast  
Wind Chill: 33°   Ceiling: 6000
Heat Index: 40°   Visibility: 10mi
Dew Point: 36°   Wind: 12mph
Humidity: 86%   Direction: 20°NNE
Pressure: 30.25"   Gusts: NA
Location:  35.64°N, 91.27°W
Report Text: KM19 192356Z AUTO 02010KT 10SM OVC060 04/02 A3025 RMK AO2 53004 60000 T00440022 10055 20044 RAE49 P0000 SLP246
Loading
Personal Weather Stations






























Interactive Weather Map New forecast layout! Learn more

10-Day Weather Forecast

Advertisements
Track Severe Weather on mobile